Time;durP1;ratioP1;P1;durP2;ratioP2;P2;SDS_P1;SDS_P2;PMS_P1;PMS_P2;Temp;Humidity;BMP_temperature;BMP_pressure;BME280_temperature;BME280_humidity;BME280_pressure;Samples;Min_cycle;Max_cycle;Signal;HPM_P1;HPM_P2
2022/06/14 00:00:53;;;;;;;7.87;3.33;;;10.70;1.00;;;;;;5138310;27;20465;-61
2022/06/14 00:02:29;;;;;;;4.70;3.60;;;10.60;1.00;;;;;;5140139;27;20482;-61
2022/06/14 00:04:56;;;;;;;6.13;3.37;;;10.60;1.00;;;;;;5139666;27;20462;-61
2022/06/14 00:07:25;;;;;;;3.97;3.40;;;10.50;1.00;;;;;;5138113;27;20816;-61
2022/06/14 00:09:52;;;;;;;3.90;3.03;;;10.40;1.00;;;;;;5136274;27;20497;-61
2022/06/14 00:12:19;;;;;;;6.30;3.90;;;10.40;1.00;;;;;;5140894;27;20446;-62
2022/06/14 00:14:48;;;;;;;6.60;3.60;;;10.40;1.00;;;;;;5138979;27;20457;-61
2022/06/14 00:17:15;;;;;;;5.53;3.43;;;10.40;1.00;;;;;;5139848;27;20459;-61
2022/06/14 00:19:42;;;;;;;8.53;3.97;;;10.40;1.00;;;;;;5135736;27;20751;-61
2022/06/14 00:22:10;;;;;;;6.37;2.93;;;10.50;1.00;;;;;;5139661;27;20502;-61
2022/06/14 00:24:38;;;;;;;5.00;3.23;;;10.40;1.00;;;;;;5140343;27;20463;-61
2022/06/14 00:27:05;;;;;;;7.53;4.27;;;10.40;1.00;;;;;;5137837;27;20462;-61
2022/06/14 00:29:33;;;;;;;5.40;3.77;;;10.30;1.00;;;;;;5137402;27;20466;-61
2022/06/14 00:32:04;;;;;;;7.83;4.40;;;10.30;1.00;;;;;;5139161;27;20493;-61
2022/06/14 00:34:31;;;;;;;7.60;4.20;;;10.30;1.00;;;;;;5140223;27;20458;-61
2022/06/14 00:36:59;;;;;;;6.87;3.73;;;10.20;1.00;;;;;;5128082;27;20460;-62
2022/06/14 00:39:26;;;;;;;6.27;3.80;;;10.20;1.00;;;;;;5139105;27;20511;-61
2022/06/14 00:41:56;;;;;;;8.27;3.80;;;10.20;1.00;;;;;;5123004;27;20490;-61
2022/06/14 00:44:25;;;;;;;3.40;3.03;;;10.20;1.00;;;;;;5118686;28;20455;-61
2022/06/14 00:47:00;;;;;;;9.03;4.73;;;10.10;1.00;;;;;;5122434;27;20454;-61
2022/06/14 00:49:32;;;;;;;7.53;3.30;;;10.00;1.00;;;;;;5118770;28;20463;-61
2022/06/14 00:52:03;;;;;;;5.20;3.73;;;10.00;1.00;;;;;;5119348;28;20796;-61
2022/06/14 00:54:34;;;;;;;7.43;3.93;;;10.00;1.00;;;;;;5119351;28;20459;-61
2022/06/14 00:57:11;;;;;;;8.17;3.80;;;10.00;1.00;;;;;;5122704;27;20462;-61
2022/06/14 00:59:45;;;;;;;6.70;3.80;;;10.00;1.00;;;;;;5137169;27;20458;-61
2022/06/14 01:02:15;;;;;;;8.67;4.00;;;9.90;1.00;;;;;;5127746;27;20544;-61
2022/06/14 01:04:47;;;;;;;6.00;3.90;;;9.90;1.00;;;;;;5119320;28;20459;-61
2022/06/14 01:07:18;;;;;;;7.10;3.60;;;9.80;1.00;;;;;;5120013;27;20466;-61
2022/06/14 01:09:51;;;;;;;5.17;4.20;;;9.90;1.00;;;;;;5134535;27;20879;-61
2022/06/14 01:12:21;;;;;;;7.10;4.30;;;9.80;1.00;;;;;;5130583;27;20769;-61
2022/06/14 01:14:58;;;;;;;6.13;4.17;;;9.80;1.00;;;;;;5124260;27;20503;-61
2022/06/14 01:17:27;;;;;;;6.93;4.13;;;9.70;1.00;;;;;;5138604;27;20515;-61
2022/06/14 01:19:55;;;;;;;5.23;3.87;;;9.60;1.00;;;;;;5117507;28;20459;-61
2022/06/14 01:22:26;;;;;;;8.87;4.20;;;9.60;1.00;;;;;;5118629;28;20536;-61
2022/06/14 01:24:56;;;;;;;5.63;4.40;;;9.60;1.00;;;;;;5118904;28;20482;-61
2022/06/14 01:27:30;;;;;;;7.43;4.10;;;9.60;1.00;;;;;;5127235;27;20458;-61
2022/06/14 01:30:06;;;;;;;5.30;4.10;;;9.40;1.00;;;;;;5121712;27;20822;-61
2022/06/14 01:32:35;;;;;;;9.87;5.30;;;9.40;1.00;;;;;;5118249;27;20505;-61
2022/06/14 01:35:07;;;;;;;4.63;3.90;;;9.40;1.00;;;;;;5118709;28;20888;-61
2022/06/14 01:37:36;;;;;;;5.77;4.47;;;9.30;1.00;;;;;;5118804;27;20463;-61
2022/06/14 01:40:06;;;;;;;6.83;4.60;;;9.30;1.00;;;;;;5138767;27;20880;-61
2022/06/14 01:42:46;;;;;;;7.37;4.10;;;9.20;1.00;;;;;;5137257;27;20490;-61
2022/06/14 01:45:23;;;;;;;6.60;4.03;;;9.20;1.00;;;;;;5138786;27;20462;-61
2022/06/14 01:48:02;;;;;;;10.10;4.77;;;9.20;1.00;;;;;;5138071;27;20465;-61
2022/06/14 01:53:30;;;;;;;5.80;3.80;;;9.20;1.00;;;;;;5127778;27;20442;-61
2022/06/14 01:56:09;;;;;;;7.17;3.97;;;9.10;1.00;;;;;;5138390;27;20458;-61
2022/06/14 01:58:46;;;;;;;6.77;4.10;;;9.00;1.00;;;;;;5138339;27;20513;-61
2022/06/14 02:01:26;;;;;;;5.17;4.43;;;9.00;15.10;;;;;;5138769;27;20955;-61
2022/06/14 02:06:51;;;;;;;8.43;4.67;;;9.00;2.20;;;;;;5138536;27;20891;-61
2022/06/14 02:09:24;;;;;;;6.10;4.17;;;9.00;1.00;;;;;;5135524;27;20463;-61
2022/06/14 02:11:51;;;;;;;8.00;4.27;;;9.10;1.00;;;;;;5137682;27;20458;-61
2022/06/14 02:14:24;;;;;;;10.57;4.53;;;9.10;1.00;;;;;;5137470;27;20438;-61
2022/06/14 02:16:56;;;;;;;7.00;4.13;;;9.00;1.00;;;;;;5138516;27;20937;-59
2022/06/14 02:19:31;;;;;;;8.37;4.17;;;9.00;1.00;;;;;;5136737;28;20556;-59
2022/06/14 02:22:11;;;;;;;8.77;4.27;;;9.00;1.00;;;;;;5116514;28;20948;-60
2022/06/14 02:24:47;;;;;;;6.03;4.23;;;9.00;1.00;;;;;;5117483;28;20459;-59
2022/06/14 02:27:21;;;;;;;7.23;4.60;;;9.00;1.00;;;;;;5117667;28;20570;-59
2022/06/14 02:29:52;;;;;;;4.40;3.97;;;8.90;1.00;;;;;;5137895;28;20954;-60
2022/06/14 02:32:25;;;;;;;8.00;3.97;;;8.90;1.00;;;;;;5119187;27;20912;-59
2022/06/14 02:34:58;;;;;;;7.53;4.43;;;8.90;1.00;;;;;;5118605;28;20515;-60
2022/06/14 02:37:31;;;;;;;4.30;3.90;;;8.90;1.00;;;;;;5117565;28;20520;-59
2022/06/14 02:40:05;;;;;;;4.93;3.90;;;8.80;13.10;;;;;;5117685;28;20899;-61
2022/06/14 02:42:36;;;;;;;8.67;4.57;;;8.70;32.80;;;;;;5133061;28;20490;-61
2022/06/14 02:45:08;;;;;;;5.33;4.10;;;8.70;1.00;;;;;;5138052;28;20475;-61
2022/06/14 02:47:42;;;;;;;5.40;4.20;;;8.60;1.00;;;;;;5138397;27;20436;-61
2022/06/14 02:50:19;;;;;;;8.10;5.10;;;8.60;1.00;;;;;;5138013;28;20961;-61
2022/06/14 02:52:54;;;;;;;4.50;4.00;;;8.60;1.00;;;;;;5122225;28;20463;-61
2022/06/14 02:55:28;;;;;;;6.87;4.60;;;8.70;10.90;;;;;;5116965;28;20488;-61
2022/06/14 02:58:01;;;;;;;5.30;4.10;;;8.70;2.30;;;;;;5137875;28;20820;-60
2022/06/14 03:00:33;;;;;;;6.10;4.87;;;8.60;1.00;;;;;;5138258;28;20455;-61
2022/06/14 03:03:07;;;;;;;8.87;4.80;;;8.60;1.00;;;;;;5138270;28;20768;-61
2022/06/14 03:05:40;;;;;;;7.60;4.80;;;8.60;1.00;;;;;;5137671;28;20581;-61
2022/06/14 03:08:16;;;;;;;8.47;5.10;;;8.60;1.00;;;;;;5138796;27;20458;-61
2022/06/14 03:10:54;;;;;;;9.13;4.50;;;8.60;1.00;;;;;;5136775;27;20969;-61
2022/06/14 03:13:30;;;;;;;6.23;4.90;;;8.50;1.00;;;;;;5133301;27;20451;-61
2022/06/14 03:16:06;;;;;;;6.03;4.40;;;8.40;1.00;;;;;;5141405;27;20740;-61
2022/06/14 03:18:42;;;;;;;7.50;4.70;;;8.50;36.40;;;;;;5140598;27;20462;-61
2022/06/14 03:21:15;;;;;;;7.30;4.20;;;8.50;89.20;;;;;;5140915;27;20493;-60
2022/06/14 03:23:52;;;;;;;8.80;4.83;;;8.40;1.00;;;;;;5141269;27;20526;-61
2022/06/14 03:26:31;;;;;;;8.50;4.67;;;8.30;1.00;;;;;;5138314;27;20462;-61
2022/06/14 03:29:09;;;;;;;5.23;3.90;;;8.30;1.00;;;;;;5119741;28;20783;-61
2022/06/14 03:31:43;;;;;;;9.70;4.50;;;8.30;1.00;;;;;;5125247;27;20458;-61
2022/06/14 03:34:17;;;;;;;6.97;4.53;;;8.20;1.00;;;;;;5121007;28;20466;-61
2022/06/14 03:36:45;;;;;;;7.77;4.00;;;8.20;1.00;;;;;;5120795;28;20454;-61
2022/06/14 03:39:15;;;;;;;5.23;3.80;;;8.20;1.00;;;;;;5137315;27;20745;-61
2022/06/14 03:41:47;;;;;;;5.10;4.13;;;8.20;1.00;;;;;;5139004;27;20471;-61
2022/06/14 03:44:16;;;;;;;5.90;4.50;;;8.20;1.00;;;;;;5140760;27;20462;-61
2022/06/14 03:46:46;;;;;;;7.60;4.93;;;8.20;99.90;;;;;;5141098;27;20458;-61
2022/06/14 03:49:17;;;;;;;5.37;4.37;;;8.10;99.90;;;;;;5140266;27;20511;-60
2022/06/14 03:51:58;;;;;;;5.90;4.50;;;8.20;99.90;;;;;;5141112;27;20470;-60
2022/06/14 03:54:39;;;;;;;6.20;3.73;;;8.30;99.90;;;;;;5141238;27;20725;-60
2022/06/14 03:57:16;;;;;;;5.47;3.97;;;8.30;99.90;;;;;;5141312;27;20461;-60
2022/06/14 03:59:57;;;;;;;9.70;5.20;;;8.30;91.50;;;;;;5127357;27;20802;-60
2022/06/14 04:05:46;;;;;;;8.13;4.30;;;8.30;1.00;;;;;;5119376;28;20471;-60
2022/06/14 04:08:22;;;;;;;6.90;4.53;;;8.30;41.80;;;;;;5099201;28;20464;-60
2022/06/14 04:10:58;;;;;;;10.87;4.13;;;8.40;53.30;;;;;;5122274;27;20462;-60
2022/06/14 04:13:38;;;;;;;7.40;5.07;;;8.40;40.30;;;;;;5133721;27;20470;-60
2022/06/14 04:16:12;;;;;;;6.87;4.73;;;8.50;1.00;;;;;;5140436;27;20466;-61
2022/06/14 04:18:50;;;;;;;6.13;4.97;;;8.50;12.50;;;;;;5140672;27;20458;-59
2022/06/14 04:21:32;;;;;;;4.57;4.13;;;8.60;1.00;;;;;;5123087;27;20487;-60
2022/06/14 04:24:08;;;;;;;8.90;4.03;;;8.60;11.70;;;;;;5139040;27;20486;-60
2022/06/14 04:26:43;;;;;;;6.83;4.70;;;8.60;1.00;;;;;;5140318;27;20458;-60
2022/06/14 04:29:18;;;;;;;6.90;4.70;;;8.60;31.40;;;;;;5140291;27;20532;-60
2022/06/14 04:31:50;;;;;;;7.93;4.33;;;8.70;65.60;;;;;;5133472;27;20463;-61
2022/06/14 04:34:27;;;;;;;8.50;5.77;;;8.70;82.00;;;;;;5139897;27;20458;-60
2022/06/14 04:37:01;;;;;;;8.93;4.80;;;8.70;80.50;;;;;;5139249;27;20524;-61
2022/06/14 04:39:41;;;;;;;9.43;5.07;;;8.80;59.60;;;;;;5139056;27;20459;-60
2022/06/14 04:42:13;;;;;;;8.67;5.33;;;8.70;64.70;;;;;;5126138;27;20487;-61
2022/06/14 04:44:46;;;;;;;8.87;5.90;;;8.80;95.10;;;;;;5119450;28;20459;-61
2022/06/14 04:47:20;;;;;;;9.93;6.30;;;8.80;83.10;;;;;;5120418;27;20455;-60
2022/06/14 04:49:54;;;;;;;7.70;5.30;;;8.80;99.90;;;;;;5119186;28;20520;-60
2022/06/14 04:52:24;;;;;;;7.97;6.00;;;8.90;99.90;;;;;;5125588;27;20878;-60
2022/06/14 04:54:57;;;;;;;9.13;6.20;;;9.00;99.90;;;;;;5139833;27;20459;-61
2022/06/14 04:57:30;;;;;;;8.73;6.60;;;9.10;93.10;;;;;;5123988;27;20815;-61
2022/06/14 05:00:05;;;;;;;12.10;6.27;;;9.30;96.10;;;;;;5118763;28;20459;-60
2022/06/14 05:02:39;;;;;;;10.97;5.60;;;9.30;65.30;;;;;;5135023;27;20481;-61
2022/06/14 05:05:15;;;;;;;5.90;5.30;;;9.50;58.30;;;;;;5139209;27;20901;-60
2022/06/14 05:07:47;;;;;;;10.80;6.00;;;9.60;1.00;;;;;;5138586;27;20523;-61
2022/06/14 05:10:20;;;;;;;10.23;5.57;;;9.60;1.00;;;;;;5139373;27;20608;-61
2022/06/14 05:12:53;;;;;;;8.10;6.60;;;9.60;1.00;;;;;;5128848;27;20771;-61
2022/06/14 05:15:26;;;;;;;10.20;6.20;;;9.60;1.00;;;;;;5118474;28;20452;-60
2022/06/14 05:17:58;;;;;;;12.30;6.03;;;9.60;1.00;;;;;;5119164;28;20464;-60
2022/06/14 05:20:31;;;;;;;9.13;5.97;;;9.70;1.00;;;;;;5118652;28;20491;-61
2022/06/14 05:23:08;;;;;;;9.33;6.50;;;9.80;1.00;;;;;;5119152;27;20495;-61
2022/06/14 05:25:50;;;;;;;8.10;5.77;;;9.90;59.10;;;;;;5118240;28;20507;-61
2022/06/14 05:28:26;;;;;;;6.80;6.10;;;10.10;10.80;;;;;;5118206;28;20467;-61
2022/06/14 05:30:59;;;;;;;7.93;6.60;;;10.20;1.00;;;;;;5118135;28;20459;-61
2022/06/14 05:33:39;;;;;;;7.57;5.70;;;10.40;1.00;;;;;;5119367;27;20507;-61
2022/06/14 05:36:12;;;;;;;10.73;6.23;;;10.60;1.00;;;;;;5125999;27;20481;-61
2022/06/14 05:38:46;;;;;;;9.63;5.30;;;10.80;7.20;;;;;;5138188;27;20466;-61
2022/06/14 05:41:19;;;;;;;14.93;7.20;;;11.10;54.00;;;;;;5127939;27;20948;-62
2022/06/14 05:43:52;;;;;;;7.30;5.73;;;11.30;1.00;;;;;;5130916;27;20490;-62
2022/06/14 05:46:42;;;;;;;9.30;6.83;;;11.60;1.00;;;;;;5120996;27;20450;-62
2022/06/14 05:49:14;;;;;;;11.37;6.00;;;12.00;1.00;;;;;;5117475;28;20954;-62
2022/06/14 05:51:48;;;;;;;10.00;6.60;;;12.40;1.00;;;;;;5117486;28;20459;-62
2022/06/14 05:54:24;;;;;;;11.33;6.37;;;12.80;1.00;;;;;;5128576;27;20446;-62
2022/06/14 05:57:05;;;;;;;8.37;6.00;;;13.10;1.00;;;;;;5134957;27;20457;-63
2022/06/14 05:59:39;;;;;;;10.90;6.40;;;13.30;99.90;;;;;;5134407;27;20469;-63
2022/06/14 06:02:26;;;;;;;12.13;7.03;;;13.60;99.90;;;;;;5131045;27;20780;-62
2022/06/14 06:04:57;;;;;;;13.03;7.83;;;14.00;99.90;;;;;;5132903;27;20448;-63
2022/06/14 06:07:29;;;;;;;13.73;6.23;;;14.50;99.90;;;;;;5133353;27;20526;-63
2022/06/14 06:10:02;;;;;;;7.77;5.53;;;14.70;99.90;;;;;;5123436;27;20461;-63
2022/06/14 06:12:35;;;;;;;7.47;6.67;;;14.90;99.90;;;;;;5130665;27;20492;-62
2022/06/14 06:15:08;;;;;;;14.90;7.23;;;15.20;99.90;;;;;;5131636;27;20557;-63
2022/06/14 06:17:41;;;;;;;9.67;6.47;;;15.60;99.90;;;;;;5133471;27;20458;-63
2022/06/14 06:20:19;;;;;;;11.57;6.70;;;16.00;99.90;;;;;;5137180;27;20923;-63
2022/06/14 06:22:50;;;;;;;14.33;7.60;;;16.10;99.90;;;;;;5135913;27;20514;-63
2022/06/14 06:25:22;;;;;;;13.33;5.90;;;16.20;99.90;;;;;;5136840;27;20514;-63
2022/06/14 06:27:53;;;;;;;9.27;4.83;;;16.30;99.90;;;;;;5117272;28;20614;-62
2022/06/14 06:30:26;;;;;;;10.40;4.73;;;16.70;99.90;;;;;;5128079;28;20463;-63
2022/06/14 06:32:57;;;;;;;8.67;5.20;;;17.20;99.90;;;;;;5125131;28;20463;-62
2022/06/14 06:35:42;;;;;;;11.03;5.27;;;17.40;99.90;;;;;;5137791;28;20458;-63
2022/06/14 06:38:26;;;;;;;7.80;4.50;;;17.60;99.90;;;;;;5123117;28;20466;-63
2022/06/14 06:43:49;;;;;;;8.17;3.70;;;18.10;99.90;;;;;;5139916;27;20611;-63
2022/06/14 06:46:17;;;;;;;9.60;3.97;;;18.30;99.90;;;;;;5139390;27;20907;-63
2022/06/14 06:48:54;;;;;;;7.40;3.97;;;18.60;99.90;;;;;;5119697;27;20512;-63
2022/06/14 06:51:34;;;;;;;4.47;3.83;;;18.70;99.90;;;;;;5121634;27;20466;-63
2022/06/14 06:54:09;;;;;;;6.10;3.50;;;18.90;99.90;;;;;;5121067;28;20774;-63
2022/06/14 06:56:40;;;;;;;9.97;4.33;;;19.30;99.90;;;;;;5120981;28;20459;-63
2022/06/14 06:59:22;;;;;;;7.77;4.33;;;19.60;99.90;;;;;;5119637;28;20508;-64
2022/06/14 07:01:53;;;;;;;8.80;3.57;;;19.60;99.90;;;;;;5126019;27;20902;-63
2022/06/14 07:07:36;;;;;;;11.73;4.50;;;20.10;99.90;;;;;;5140302;27;20430;-64
2022/06/14 07:10:11;;;;;;;5.90;4.13;;;20.10;99.90;;;;;;5141897;27;20496;-63
2022/06/14 07:12:43;;;;;;;6.73;3.87;;;20.20;99.90;;;;;;5139852;27;20710;-64
2022/06/14 07:15:17;;;;;;;5.50;3.93;;;20.40;99.90;;;;;;5138774;27;20917;-63
2022/06/14 07:17:51;;;;;;;9.47;4.40;;;20.20;99.90;;;;;;5120287;27;20458;-64
2022/06/14 07:20:34;;;;;;;7.53;4.37;;;20.20;99.90;;;;;;5140990;27;20457;-63
2022/06/14 07:23:11;;;;;;;8.83;4.67;;;20.10;99.90;;;;;;5132888;27;20577;-64
2022/06/14 07:25:49;;;;;;;6.67;3.83;;;19.90;99.90;;;;;;5120908;27;20470;-63
2022/06/14 07:28:20;;;;;;;7.93;3.53;;;20.10;99.90;;;;;;5137879;27;20473;-64
2022/06/14 07:30:54;;;;;;;10.13;4.07;;;20.50;99.90;;;;;;5126114;27;20919;-64
2022/06/14 07:33:24;;;;;;;5.73;4.27;;;20.70;99.90;;;;;;5122076;27;20757;-64
2022/06/14 07:35:59;;;;;;;5.63;3.77;;;21.00;99.90;;;;;;5124114;27;20968;-64
2022/06/14 07:38:34;;;;;;;7.37;4.07;;;21.60;99.90;;;;;;5120569;28;20728;-64
2022/06/14 07:41:11;;;;;;;8.77;4.60;;;21.80;99.90;;;;;;5129847;27;20454;-63
2022/06/14 07:43:46;;;;;;;6.90;5.13;;;21.10;99.90;;;;;;5138078;27;20482;-64
2022/06/14 07:46:19;;;;;;;8.33;4.37;;;21.30;99.90;;;;;;5137240;27;20455;-64
2022/06/14 07:48:53;;;;;;;6.50;4.00;;;20.90;99.90;;;;;;5120887;28;20460;-64
2022/06/14 07:51:27;;;;;;;10.83;4.17;;;20.80;99.90;;;;;;5123522;27;20463;-64
2022/06/14 07:54:01;;;;;;;6.47;3.77;;;21.10;99.90;;;;;;5120961;27;20462;-64
2022/06/14 07:56:33;;;;;;;6.07;3.73;;;21.60;99.90;;;;;;5120060;27;20468;-64
2022/06/14 07:59:06;;;;;;;5.97;4.10;;;21.70;99.90;;;;;;5120658;28;20463;-64
2022/06/14 08:01:38;;;;;;;10.90;4.87;;;22.10;99.90;;;;;;5119701;27;20467;-64
2022/06/14 08:04:13;;;;;;;5.77;3.63;;;22.50;99.90;;;;;;5120419;27;20522;-64
2022/06/14 08:06:46;;;;;;;5.67;4.17;;;22.70;99.90;;;;;;5119886;28;20796;-64
2022/06/14 08:09:18;;;;;;;6.10;4.17;;;22.50;99.90;;;;;;5128909;27;20557;-64
2022/06/14 08:11:50;;;;;;;6.90;4.87;;;22.50;99.90;;;;;;5137998;27;20447;-65
2022/06/14 08:14:29;;;;;;;7.23;4.20;;;22.70;99.90;;;;;;5122718;27;20463;-65
2022/06/14 08:16:57;;;;;;;6.97;4.07;;;22.80;99.90;;;;;;5126988;27;20470;-65
2022/06/14 08:19:30;;;;;;;6.60;3.60;;;23.20;99.90;;;;;;5123841;27;20956;-64
2022/06/14 08:22:05;;;;;;;6.43;4.47;;;23.40;99.90;;;;;;5119070;28;20575;-64
2022/06/14 08:24:40;;;;;;;7.57;3.87;;;23.70;99.90;;;;;;5121356;27;20540;-64
2022/06/14 08:27:14;;;;;;;6.50;4.17;;;24.10;99.90;;;;;;5130352;27;20474;-64
2022/06/14 08:29:45;;;;;;;7.23;3.80;;;23.80;99.90;;;;;;5126844;27;20484;-64
2022/06/14 08:32:19;;;;;;;4.50;3.30;;;23.90;99.90;;;;;;5120388;27;20812;-64
2022/06/14 08:34:50;;;;;;;9.03;4.80;;;24.10;99.90;;;;;;5121041;27;20447;-65
2022/06/14 08:37:25;;;;;;;9.10;4.40;;;24.20;99.90;;;;;;5122477;27;20462;-63
2022/06/14 08:40:02;;;;;;;7.13;4.43;;;24.00;99.90;;;;;;5119104;28;20469;-62
2022/06/14 08:42:33;;;;;;;7.40;4.33;;;24.50;99.90;;;;;;5118875;27;20781;-62
2022/06/14 08:45:05;;;;;;;6.47;4.10;;;24.30;99.90;;;;;;5119277;27;20536;-62
2022/06/14 08:47:55;;;;;;;9.27;5.10;;;24.40;99.90;;;;;;5119142;28;20718;-61
2022/06/14 08:50:52;;;;;;;7.20;3.90;;;22.90;99.90;;;;;;5119562;28;20499;-62
2022/06/14 08:53:57;;;;;;;7.37;4.60;;;22.70;99.90;;;;;;5138301;27;20756;-62
2022/06/14 08:56:38;;;;;;;7.03;4.20;;;22.20;99.90;;;;;;5126884;27;20466;-61
2022/06/14 08:59:33;;;;;;;7.43;4.90;;;22.10;99.90;;;;;;5119442;28;20727;-61
2022/06/14 09:02:36;;;;;;;8.30;4.80;;;23.00;99.90;;;;;;5116133;28;20554;-61
2022/06/14 09:05:40;;;;;;;7.30;5.10;;;23.30;99.90;;;;;;5086234;28;20581;-61
2022/06/14 09:08:38;;;;;;;6.93;4.67;;;22.70;99.90;;;;;;5135143;27;20744;-61
2022/06/14 09:11:39;;;;;;;8.40;5.03;;;22.50;99.90;;;;;;5118943;28;20464;-62
2022/06/14 09:14:48;;;;;;;12.93;5.07;;;22.70;99.90;;;;;;5084631;28;20462;-61
2022/06/14 09:18:01;;;;;;;9.93;5.00;;;21.70;99.90;;;;;;5049011;27;20469;-61
2022/06/14 09:20:37;;;;;;;9.53;4.60;;;21.40;99.90;;;;;;5055117;28;20490;-61
2022/06/14 09:23:30;;;;;;;5.80;4.17;;;21.20;99.90;;;;;;5054134;28;20608;-61
2022/06/14 09:26:28;;;;;;;6.87;4.30;;;22.20;99.90;;;;;;5103436;27;20466;-61
2022/06/14 09:29:46;;;;;;;8.30;4.67;;;23.10;99.90;;;;;;5133619;27;20454;-61
2022/06/14 09:35:49;;;;;;;6.77;4.73;;;23.00;99.90;;;;;;5136121;27;20430;-61
2022/06/14 09:38:38;;;;;;;4.93;4.43;;;22.90;99.90;;;;;;5086459;27;20926;-61
2022/06/14 09:41:19;;;;;;;8.00;3.93;;;24.10;99.90;;;;;;5118608;28;20459;-61
2022/06/14 09:44:09;;;;;;;8.97;3.57;;;25.00;99.90;;;;;;5118663;28;20490;-62
2022/06/14 09:47:21;;;;;;;6.43;4.03;;;25.70;99.90;;;;;;5118355;28;20468;-61
2022/06/14 09:50:23;;;;;;;5.03;4.07;;;25.60;99.90;;;;;;5121412;27;20912;-61
2022/06/14 09:53:39;;;;;;;6.10;4.60;;;24.80;99.90;;;;;;5136949;27;20764;-62
2022/06/14 09:56:28;;;;;;;5.10;4.10;;;25.50;99.90;;;;;;5138726;27;20458;-61
2022/06/14 09:59:19;;;;;;;8.17;4.50;;;24.30;99.90;;;;;;5136153;27;20503;-62
2022/06/14 10:01:55;;;;;;;6.90;5.10;;;23.40;99.90;;;;;;5138674;27;20454;-61
2022/06/14 10:04:52;;;;;;;6.00;5.40;;;24.40;99.90;;;;;;5136341;27;20485;-61
2022/06/14 10:07:41;;;;;;;5.80;4.33;;;24.20;99.90;;;;;;5138203;27;20466;-61
2022/06/14 10:10:26;;;;;;;5.73;4.13;;;24.60;99.90;;;;;;5123384;27;20464;-61
2022/06/14 10:13:32;;;;;;;11.50;5.00;;;25.20;99.90;;;;;;5117980;27;20914;-62
2022/06/14 10:16:10;;;;;;;6.83;4.10;;;25.10;99.90;;;;;;5116395;28;20903;-61
2022/06/14 10:19:04;;;;;;;5.77;4.10;;;24.10;99.90;;;;;;5115275;28;20490;-62
2022/06/14 10:21:43;;;;;;;6.93;4.10;;;24.60;99.90;;;;;;5131906;28;20489;-61
2022/06/14 10:24:24;;;;;;;4.83;4.10;;;24.10;99.90;;;;;;5137555;28;20492;-61
2022/06/14 10:30:03;;;;;;;8.03;4.50;;;25.30;99.90;;;;;;5132873;28;20464;-61
2022/06/14 10:33:06;;;;;;;6.73;4.57;;;23.10;99.90;;;;;;5136983;27;20454;-61
2022/06/14 10:35:42;;;;;;;5.37;4.17;;;21.50;99.90;;;;;;5120844;27;20460;-61
2022/06/14 10:38:44;;;;;;;5.17;4.60;;;21.40;99.90;;;;;;5137915;27;20492;-61
2022/06/14 10:41:26;;;;;;;6.17;4.10;;;22.60;99.90;;;;;;5127409;28;20461;-61
2022/06/14 10:44:02;;;;;;;6.27;4.50;;;24.20;99.90;;;;;;5131719;28;20891;-62
2022/06/14 10:46:43;;;;;;;9.30;4.50;;;24.50;99.90;;;;;;5124367;28;20482;-61
2022/06/14 10:49:31;;;;;;;7.20;4.17;;;25.30;99.90;;;;;;5130627;28;20469;-62
2022/06/14 10:52:21;;;;;;;8.37;4.70;;;25.40;99.90;;;;;;5126771;28;20771;-61
2022/06/14 10:54:58;;;;;;;5.80;3.97;;;26.30;99.90;;;;;;5134754;28;20895;-61
2022/06/14 10:57:44;;;;;;;7.90;4.73;;;27.00;99.90;;;;;;5136904;27;20457;-62
2022/06/14 11:00:31;;;;;;;6.43;3.87;;;27.10;99.90;;;;;;5137765;28;20491;-61
2022/06/14 11:03:31;;;;;;;4.93;3.97;;;25.60;99.90;;;;;;5129206;28;20757;-62
2022/06/14 11:06:22;;;;;;;5.87;4.10;;;24.90;99.90;;;;;;5117669;28;20934;-62
2022/06/14 11:09:03;;;;;;;6.97;4.20;;;25.20;99.90;;;;;;5116849;28;20459;-61
2022/06/14 11:11:54;;;;;;;7.03;4.47;;;23.50;99.90;;;;;;5115976;28;20459;-61
2022/06/14 11:14:32;;;;;;;5.60;4.30;;;24.10;99.90;;;;;;5115937;28;20451;-61
2022/06/14 11:17:36;;;;;;;7.20;3.93;;;22.70;99.90;;;;;;5115735;28;20463;-60
2022/06/14 11:20:18;;;;;;;4.73;4.07;;;23.80;99.90;;;;;;5116414;28;20807;-61
2022/06/14 11:22:52;;;;;;;5.70;4.23;;;25.20;99.90;;;;;;5117253;28;20459;-61
2022/06/14 11:25:35;;;;;;;5.47;4.60;;;26.10;99.90;;;;;;5116385;28;20594;-61
2022/06/14 11:28:13;;;;;;;8.63;4.57;;;26.40;99.90;;;;;;5116218;28;20746;-61
2022/06/14 11:30:49;;;;;;;5.43;4.53;;;26.50;99.90;;;;;;5120869;28;20463;-61
2022/06/14 11:33:43;;;;;;;10.53;5.10;;;27.30;99.90;;;;;;5120319;28;20469;-61
2022/06/14 11:36:23;;;;;;;8.33;4.63;;;27.50;99.90;;;;;;5137406;27;20450;-61
2022/06/14 11:39:15;;;;;;;6.03;5.10;;;28.00;99.90;;;;;;5139333;27;20466;-62
2022/06/14 11:41:45;;;;;;;6.50;4.23;;;27.80;99.90;;;;;;5139830;27;20461;-62
2022/06/14 11:44:36;;;;;;;7.63;5.47;;;27.40;99.90;;;;;;5139989;27;20494;-61
2022/06/14 11:47:17;;;;;;;7.57;4.53;;;26.80;99.90;;;;;;5140354;27;20462;-62
2022/06/14 11:49:54;;;;;;;6.30;4.70;;;24.90;99.90;;;;;;5130237;27;20494;-61
2022/06/14 11:52:51;;;;;;;7.10;4.90;;;24.80;99.90;;;;;;5138622;27;20921;-62
2022/06/14 11:55:36;;;;;;;7.83;5.30;;;23.60;99.90;;;;;;5135576;27;20502;-62
2022/06/14 11:58:19;;;;;;;4.90;4.37;;;23.00;99.90;;;;;;5120172;27;20494;-61
2022/06/14 12:01:10;;;;;;;13.63;4.60;;;24.20;99.90;;;;;;5136043;27;20480;-61
2022/06/14 12:04:03;;;;;;;6.37;5.37;;;24.40;99.90;;;;;;5139520;27;20459;-61
2022/06/14 12:06:41;;;;;;;8.23;5.37;;;24.10;99.90;;;;;;5120053;28;20451;-61
2022/06/14 12:09:41;;;;;;;9.13;4.70;;;24.30;99.90;;;;;;5130650;27;20505;-61
2022/06/14 12:12:18;;;;;;;7.50;4.40;;;23.60;99.90;;;;;;5112471;27;20469;-62
2022/06/14 12:15:01;;;;;;;7.33;4.80;;;25.20;99.90;;;;;;5127881;27;20922;-62
2022/06/14 12:17:31;;;;;;;6.07;4.50;;;25.50;99.90;;;;;;5139523;27;20459;-61
2022/06/14 12:20:08;;;;;;;6.43;4.47;;;26.40;99.90;;;;;;5139779;27;20551;-61
2022/06/14 12:22:53;;;;;;;10.20;4.60;;;26.40;99.90;;;;;;5131393;27;20511;-62
2022/06/14 12:28:19;;;;;;;6.70;3.93;;;26.70;99.90;;;;;;5119862;27;20471;-61
2022/06/14 12:30:50;;;;;;;5.60;4.80;;;25.80;99.90;;;;;;5119707;28;20463;-60
2022/06/14 12:33:29;;;;;;;5.97;4.53;;;26.60;99.90;;;;;;5129688;27;20466;-61
2022/06/14 12:36:07;;;;;;;7.00;5.83;;;27.80;99.90;;;;;;5118519;28;20478;-61
2022/06/14 12:38:39;;;;;;;6.27;5.40;;;27.20;99.90;;;;;;5119407;28;20463;-61
2022/06/14 12:41:14;;;;;;;5.33;4.80;;;26.40;99.90;;;;;;5119352;28;20459;-62
2022/06/14 12:43:55;;;;;;;9.57;5.43;;;26.70;99.90;;;;;;5121546;27;20459;-62
2022/06/14 12:46:30;;;;;;;5.47;4.43;;;25.60;99.90;;;;;;5119107;28;20487;-61
2022/06/14 12:49:02;;;;;;;9.00;5.27;;;26.90;99.90;;;;;;5119540;28;20723;-61
2022/06/14 12:51:39;;;;;;;8.70;5.70;;;26.50;99.90;;;;;;5118682;28;20460;-61
2022/06/14 12:54:15;;;;;;;7.10;5.00;;;25.00;99.90;;;;;;5134736;27;20474;-62
2022/06/14 12:56:55;;;;;;;13.33;5.47;;;24.90;99.90;;;;;;5135606;27;20888;-61
2022/06/14 12:59:28;;;;;;;5.30;4.80;;;24.40;99.90;;;;;;5133847;27;20466;-61
2022/06/14 13:02:02;;;;;;;5.43;4.50;;;25.00;99.90;;;;;;5124440;27;20513;-61
2022/06/14 13:04:37;;;;;;;6.63;4.87;;;26.10;99.90;;;;;;5135281;27;20458;-61
2022/06/14 13:07:36;;;;;;;6.50;4.70;;;27.00;99.90;;;;;;5137766;27;20462;-62
2022/06/14 13:10:37;;;;;;;5.83;4.33;;;26.80;99.90;;;;;;5118589;28;20455;-62
2022/06/14 13:13:25;;;;;;;6.30;4.80;;;27.70;99.90;;;;;;5122577;27;20516;-61
2022/06/14 13:16:02;;;;;;;5.93;4.93;;;28.30;99.90;;;;;;5119334;28;20459;-61
2022/06/14 13:18:41;;;;;;;5.43;5.03;;;28.90;99.90;;;;;;5127113;27;20462;-61
2022/06/14 13:21:16;;;;;;;6.27;4.57;;;29.10;99.90;;;;;;5118369;28;20540;-61
2022/06/14 13:24:02;;;;;;;5.07;4.67;;;29.20;99.90;;;;;;5135495;27;20819;-62
2022/06/14 13:26:44;;;;;;;7.10;4.57;;;28.00;99.90;;;;;;5135838;27;20555;-61
2022/06/14 13:29:33;;;;;;;7.10;5.10;;;28.50;99.90;;;;;;5120556;27;20456;-61
2022/06/14 13:32:17;;;;;;;7.03;5.03;;;28.60;99.90;;;;;;5125146;27;20775;-61
2022/06/14 13:34:52;;;;;;;6.90;4.90;;;27.50;99.90;;;;;;5134981;27;20450;-62
2022/06/14 13:37:37;;;;;;;7.33;5.07;;;27.40;99.90;;;;;;5131717;27;20458;-61
2022/06/14 13:40:13;;;;;;;8.93;4.83;;;27.50;99.90;;;;;;5137105;27;20544;-62
2022/06/14 13:42:50;;;;;;;10.13;4.53;;;27.40;99.90;;;;;;5134170;27;20484;-61
2022/06/14 13:45:23;;;;;;;5.40;4.90;;;27.70;99.90;;;;;;5134433;27;20525;-61
2022/06/14 13:47:58;;;;;;;6.87;4.70;;;27.40;99.90;;;;;;5136755;27;20458;-61
2022/06/14 13:50:34;;;;;;;8.47;4.93;;;27.50;99.90;;;;;;5132790;27;20557;-61
2022/06/14 13:53:07;;;;;;;7.03;4.63;;;27.70;99.90;;;;;;5136523;27;20525;-62
2022/06/14 13:55:41;;;;;;;6.17;5.57;;;27.80;99.90;;;;;;5133437;27;20460;-61
2022/06/14 13:58:13;;;;;;;7.93;7.17;;;27.50;99.90;;;;;;5135222;27;20942;-61
2022/06/14 14:00:52;;;;;;;7.80;5.60;;;27.80;99.90;;;;;;5134926;27;20816;-62
2022/06/14 14:03:30;;;;;;;7.07;5.20;;;28.40;99.90;;;;;;5137114;27;20458;-61
2022/06/14 14:06:04;;;;;;;6.73;4.70;;;28.90;99.90;;;;;;5136063;27;20486;-61
2022/06/14 14:08:41;;;;;;;6.40;4.80;;;26.70;99.90;;;;;;5137875;27;20462;-60
2022/06/14 14:11:17;;;;;;;6.17;5.60;;;26.60;99.90;;;;;;5133978;27;20591;-60